Time;durP1;ratioP1;P1;durP2;ratioP2;P2;SDS_P1;SDS_P2;PMS_P1;PMS_P2;Temp;Humidity;BMP_temperature;BMP_pressure;BME280_temperature;BME280_humidity;BME280_pressure;Samples;Min_cycle;Max_cycle;Signal;HPM_P1;HPM_P2
2021/11/25 00:01:43;;;;;;;13.33;11.53;;;5.60;87.10;;;;;;5039110;28;20600;-87
2021/11/25 00:04:08;;;;;;;12.77;11.30;;;5.70;87.00;;;;;;5056988;28;20267;-85
2021/11/25 00:06:34;;;;;;;15.97;11.50;;;5.60;86.90;;;;;;5039147;28;20174;-86
2021/11/25 00:09:00;;;;;;;13.00;11.60;;;5.70;86.80;;;;;;5056774;28;20248;-86
2021/11/25 00:11:26;;;;;;;15.07;10.70;;;5.60;87.00;;;;;;5039249;28;20167;-84
2021/11/25 00:13:51;;;;;;;17.67;11.67;;;5.60;86.70;;;;;;5039034;28;20170;-86
2021/11/25 00:16:18;;;;;;;17.40;12.10;;;5.60;86.90;;;;;;5038690;28;20650;-85
2021/11/25 00:18:44;;;;;;;14.73;11.57;;;5.60;86.90;;;;;;5056516;28;20189;-86
2021/11/25 00:21:10;;;;;;;13.93;11.50;;;5.60;86.80;;;;;;5039074;28;20622;-86
2021/11/25 00:23:37;;;;;;;16.07;11.13;;;5.60;86.70;;;;;;5057085;28;20206;-87
2021/11/25 00:26:03;;;;;;;13.63;10.83;;;5.60;87.00;;;;;;5039164;28;20173;-87
2021/11/25 00:28:30;;;;;;;15.50;12.50;;;5.60;87.10;;;;;;5039745;28;20608;-87
2021/11/25 00:30:55;;;;;;;14.30;11.50;;;5.60;87.10;;;;;;5039835;28;20226;-87
2021/11/25 00:33:21;;;;;;;13.50;12.03;;;5.60;87.20;;;;;;5038844;28;20636;-86
2021/11/25 00:35:47;;;;;;;14.73;12.00;;;5.50;87.40;;;;;;5038279;28;20333;-87
2021/11/25 00:38:12;;;;;;;17.63;13.93;;;5.50;87.30;;;;;;5038120;28;20231;-86
2021/11/25 00:40:38;;;;;;;14.40;11.80;;;5.50;87.60;;;;;;5038403;28;20281;-86
2021/11/25 00:43:03;;;;;;;13.97;12.23;;;5.50;87.70;;;;;;5056561;28;20164;-86
2021/11/25 00:45:29;;;;;;;13.40;12.00;;;5.50;87.70;;;;;;5038424;28;20658;-86
2021/11/25 00:47:55;;;;;;;14.80;11.67;;;5.50;87.90;;;;;;5038814;28;20191;-86
2021/11/25 00:50:21;;;;;;;12.80;11.27;;;5.50;87.80;;;;;;5056023;28;20223;-86
2021/11/25 00:52:48;;;;;;;14.37;12.00;;;5.50;87.90;;;;;;5038322;28;20179;-85
2021/11/25 00:55:14;;;;;;;16.93;12.30;;;5.50;87.90;;;;;;5038279;28;20172;-86
2021/11/25 00:57:40;;;;;;;13.90;11.47;;;5.50;87.80;;;;;;5038370;28;20695;-86
2021/11/25 01:00:09;;;;;;;15.43;13.00;;;5.50;87.80;;;;;;5038564;28;20188;-86
2021/11/25 01:02:35;;;;;;;14.00;12.20;;;5.50;87.80;;;;;;5056107;28;20260;-86
2021/11/25 01:05:00;;;;;;;14.47;11.80;;;5.50;87.80;;;;;;5038420;28;20202;-86
2021/11/25 01:07:26;;;;;;;15.53;12.57;;;5.50;87.50;;;;;;5038471;28;20176;-86
2021/11/25 01:09:52;;;;;;;14.87;11.93;;;5.50;87.70;;;;;;5055812;28;20207;-86
2021/11/25 01:12:17;;;;;;;13.80;12.27;;;5.40;87.80;;;;;;5055365;28;20317;-86
2021/11/25 01:14:43;;;;;;;15.67;12.20;;;5.40;87.80;;;;;;5037359;28;20648;-85
2021/11/25 01:17:09;;;;;;;15.27;12.80;;;5.40;87.60;;;;;;5055034;28;20199;-85
2021/11/25 01:19:36;;;;;;;14.83;12.97;;;5.40;87.70;;;;;;5037245;28;20188;-85
2021/11/25 01:22:03;;;;;;;15.23;13.13;;;5.40;87.80;;;;;;5037048;28;20194;-85
2021/11/25 01:24:29;;;;;;;16.47;13.13;;;5.30;87.70;;;;;;5054942;28;20206;-86
2021/11/25 01:26:55;;;;;;;15.33;12.80;;;5.30;87.70;;;;;;5054976;28;20179;-85
2021/11/25 01:29:21;;;;;;;17.87;14.20;;;5.40;87.60;;;;;;5037018;28;20206;-85
2021/11/25 01:31:46;;;;;;;17.37;13.87;;;5.30;87.70;;;;;;5054884;28;20225;-86
2021/11/25 01:34:12;;;;;;;15.33;13.37;;;5.30;87.90;;;;;;5054848;28;20175;-85
2021/11/25 01:36:38;;;;;;;16.77;13.53;;;5.30;87.80;;;;;;5036750;28;20549;-85
2021/11/25 01:39:05;;;;;;;18.37;14.13;;;5.30;87.90;;;;;;5054767;28;20195;-85
2021/11/25 01:41:30;;;;;;;16.73;13.87;;;5.30;88.00;;;;;;5036782;28;20176;-85
2021/11/25 01:43:56;;;;;;;16.20;12.90;;;5.30;88.20;;;;;;5037045;28;20245;-87
2021/11/25 01:46:23;;;;;;;16.10;13.90;;;5.30;88.30;;;;;;5036647;28;20175;-86
2021/11/25 01:48:49;;;;;;;15.47;13.43;;;5.30;88.20;;;;;;5036229;28;20179;-86
2021/11/25 01:51:17;;;;;;;19.20;14.77;;;5.30;88.10;;;;;;5036467;28;20175;-86
2021/11/25 01:53:43;;;;;;;17.43;14.30;;;5.20;88.10;;;;;;5036543;28;20237;-86
2021/11/25 01:56:09;;;;;;;19.83;15.47;;;5.30;88.10;;;;;;5054325;28;20202;-86
2021/11/25 01:58:35;;;;;;;16.30;13.50;;;5.30;88.00;;;;;;5036242;28;20199;-86
2021/11/25 02:01:05;;;;;;;16.50;13.90;;;5.20;88.00;;;;;;5036541;28;20591;-86
2021/11/25 02:03:30;;;;;;;18.73;15.17;;;5.20;88.10;;;;;;5054246;28;20171;-84
2021/11/25 02:05:56;;;;;;;17.63;14.43;;;5.20;88.10;;;;;;5036570;28;20540;-86
2021/11/25 02:08:23;;;;;;;19.63;15.77;;;5.20;88.10;;;;;;5036206;28;20179;-86
2021/11/25 02:10:51;;;;;;;18.60;14.60;;;5.20;88.20;;;;;;5053917;28;20203;-86
2021/11/25 02:13:17;;;;;;;17.50;13.80;;;5.20;88.20;;;;;;5036461;28;20187;-86
2021/11/25 02:15:43;;;;;;;16.70;14.07;;;5.30;88.10;;;;;;5036161;28;20283;-86
2021/11/25 02:18:12;;;;;;;21.30;16.50;;;5.30;88.00;;;;;;5053900;28;20268;-86
2021/11/25 02:20:39;;;;;;;18.30;15.70;;;5.20;87.60;;;;;;5035903;28;20234;-86
2021/11/25 02:23:07;;;;;;;20.80;16.00;;;5.20;87.70;;;;;;5035980;28;20178;-86
2021/11/25 02:25:33;;;;;;;19.17;16.00;;;5.20;87.70;;;;;;5054054;28;20269;-85
2021/11/25 02:27:58;;;;;;;21.63;17.23;;;5.20;87.70;;;;;;5053705;28;20178;-86
2021/11/25 02:30:25;;;;;;;25.93;17.40;;;5.20;87.80;;;;;;5035720;28;20726;-85
2021/11/25 02:32:50;;;;;;;20.67;15.97;;;5.10;87.70;;;;;;5053587;28;20273;-86
2021/11/25 02:35:19;;;;;;;22.97;17.63;;;5.10;87.70;;;;;;5053605;28;20659;-85
2021/11/25 02:37:46;;;;;;;27.07;17.90;;;5.10;87.50;;;;;;5035566;28;20200;-85
2021/11/25 02:40:17;;;;;;;24.27;18.33;;;5.10;87.70;;;;;;5035606;28;20569;-85
2021/11/25 02:42:43;;;;;;;22.23;17.83;;;5.10;87.30;;;;;;5035572;28;20178;-85
2021/11/25 02:45:09;;;;;;;26.43;19.07;;;5.10;87.20;;;;;;5053390;28;20197;-85
2021/11/25 02:47:34;;;;;;;26.53;17.60;;;5.20;86.60;;;;;;5053344;28;20205;-85
2021/11/25 02:50:00;;;;;;;22.33;17.90;;;5.20;86.90;;;;;;5053417;28;20202;-85
2021/11/25 02:52:26;;;;;;;23.50;17.73;;;5.10;87.20;;;;;;5035475;28;20208;-86
2021/11/25 02:54:52;;;;;;;24.83;18.37;;;5.10;87.70;;;;;;5053415;28;20173;-85
2021/11/25 02:57:18;;;;;;;22.47;17.83;;;5.00;87.90;;;;;;5053316;28;20259;-85
2021/11/25 02:59:43;;;;;;;21.87;17.67;;;5.00;88.10;;;;;;5034690;28;20203;-85
2021/11/25 03:02:09;;;;;;;23.60;17.93;;;5.00;88.20;;;;;;5035330;28;20174;-85
2021/11/25 03:04:35;;;;;;;24.57;18.67;;;5.00;88.20;;;;;;5053069;28;20181;-85
2021/11/25 03:07:01;;;;;;;23.97;17.90;;;5.00;88.10;;;;;;5052999;28;20565;-85
2021/11/25 03:09:26;;;;;;;23.07;18.63;;;5.00;88.10;;;;;;5035006;28;20237;-85
2021/11/25 03:11:53;;;;;;;26.97;19.17;;;5.00;88.10;;;;;;5035195;28;20192;-85
2021/11/25 03:14:19;;;;;;;24.00;18.23;;;4.90;88.20;;;;;;5035319;28;20278;-85
2021/11/25 03:16:45;;;;;;;25.23;17.83;;;5.00;88.30;;;;;;5052938;28;20276;-85
2021/11/25 03:19:12;;;;;;;26.30;18.93;;;4.90;88.30;;;;;;5052884;28;20190;-85
2021/11/25 03:21:39;;;;;;;25.57;17.40;;;4.90;88.20;;;;;;5053039;28;20257;-86
2021/11/25 03:24:05;;;;;;;24.97;17.93;;;4.90;88.30;;;;;;5052988;28;20261;-85
2021/11/25 03:26:30;;;;;;;25.43;18.87;;;5.00;88.40;;;;;;5035117;28;20698;-86
2021/11/25 03:29:00;;;;;;;26.80;19.67;;;4.90;88.30;;;;;;5053883;28;20292;-88
2021/11/25 03:31:29;;;;;;;25.73;19.70;;;4.90;88.30;;;;;;5057728;28;20203;-88
2021/11/25 03:33:57;;;;;;;25.70;19.37;;;4.90;88.20;;;;;;5040914;28;20179;-88
2021/11/25 03:36:24;;;;;;;25.23;19.03;;;4.90;88.20;;;;;;5058094;28;20182;-88
2021/11/25 03:38:50;;;;;;;29.73;21.07;;;4.90;88.30;;;;;;5040095;28;20263;-88
2021/11/25 03:41:17;;;;;;;27.97;20.37;;;4.90;88.30;;;;;;5058594;28;20182;-89
2021/11/25 03:43:44;;;;;;;29.07;20.00;;;4.90;88.30;;;;;;5040372;28;20179;-89
2021/11/25 03:46:10;;;;;;;30.90;18.97;;;4.80;88.30;;;;;;5040644;28;20175;-88
2021/11/25 03:48:36;;;;;;;28.00;20.33;;;4.80;88.30;;;;;;5040544;28;20181;-88
2021/11/25 03:51:04;;;;;;;27.90;19.70;;;4.70;88.30;;;;;;5040464;28;20723;-89
2021/11/25 03:53:30;;;;;;;28.93;20.50;;;4.70;88.30;;;;;;5040178;28;20271;-89
2021/11/25 03:55:56;;;;;;;29.07;20.10;;;4.60;88.10;;;;;;5040601;28;20177;-88
2021/11/25 03:58:22;;;;;;;30.53;18.40;;;4.50;88.10;;;;;;5058629;28;20221;-88
2021/11/25 04:00:50;;;;;;;31.50;22.23;;;4.40;88.40;;;;;;5039910;28;20203;-89
2021/11/25 04:03:16;;;;;;;29.03;19.83;;;4.40;88.50;;;;;;5040086;28;20267;-89
2021/11/25 04:05:42;;;;;;;30.30;19.20;;;4.30;88.60;;;;;;5057845;28;20220;-88
2021/11/25 04:08:08;;;;;;;30.13;22.10;;;4.30;88.60;;;;;;5057813;28;20264;-89
2021/11/25 04:10:34;;;;;;;32.67;21.00;;;4.30;88.70;;;;;;5057768;28;20207;-88
2021/11/25 04:12:59;;;;;;;30.33;20.93;;;4.30;88.70;;;;;;5061386;28;20178;-88
2021/11/25 04:15:25;;;;;;;27.80;20.30;;;4.30;88.80;;;;;;5043605;28;20179;-88
2021/11/25 04:17:51;;;;;;;32.97;22.03;;;4.40;88.90;;;;;;5059321;28;20243;-88
2021/11/25 04:20:16;;;;;;;34.00;21.20;;;4.40;88.80;;;;;;5041030;28;20549;-87
2021/11/25 04:22:43;;;;;;;35.30;23.07;;;4.50;88.80;;;;;;5040271;28;20172;-87
2021/11/25 04:25:10;;;;;;;32.87;21.90;;;4.50;88.60;;;;;;5040671;28;20260;-89
2021/11/25 04:27:36;;;;;;;30.53;21.73;;;4.50;88.60;;;;;;5058942;28;20207;-86
2021/11/25 04:35:34;;;;;;;34.03;22.50;;;4.50;88.60;;;;;;5060976;28;20196;-87
2021/11/25 04:38:06;;;;;;;32.43;22.03;;;4.60;88.70;;;;;;5041803;28;20285;-88
2021/11/25 04:40:35;;;;;;;31.27;21.23;;;4.50;88.70;;;;;;5059953;28;20187;-87
2021/11/25 04:43:06;;;;;;;35.43;22.13;;;4.60;88.70;;;;;;5060461;28;20160;-86
2021/11/25 04:45:33;;;;;;;33.37;22.47;;;4.50;88.80;;;;;;5042436;28;20218;-88
2021/11/25 04:47:58;;;;;;;33.43;21.90;;;4.50;88.90;;;;;;5059816;28;20291;-88
2021/11/25 04:50:24;;;;;;;34.43;24.27;;;4.40;89.00;;;;;;5041843;28;20211;-86
2021/11/25 04:52:50;;;;;;;34.37;24.00;;;4.50;89.10;;;;;;5041577;28;20190;-86
2021/11/25 04:55:17;;;;;;;35.03;23.30;;;4.40;89.10;;;;;;5058992;28;20260;-88
2021/11/25 04:57:42;;;;;;;32.27;22.47;;;4.40;89.20;;;;;;5041927;28;20258;-88
2021/11/25 05:00:09;;;;;;;30.70;21.67;;;4.40;89.30;;;;;;5059648;28;20672;-88
2021/11/25 05:02:35;;;;;;;34.00;23.20;;;4.30;89.40;;;;;;5041035;28;20215;-88
2021/11/25 05:05:01;;;;;;;32.53;22.80;;;4.30;89.50;;;;;;5040800;28;20194;-89
2021/11/25 05:07:27;;;;;;;31.60;23.50;;;4.30;89.50;;;;;;5059562;28;20178;-89
2021/11/25 05:09:53;;;;;;;38.87;22.97;;;4.30;89.50;;;;;;5040841;28;20215;-88
2021/11/25 05:12:18;;;;;;;37.37;23.17;;;4.30;89.30;;;;;;5059261;28;20195;-86
2021/11/25 05:14:44;;;;;;;37.00;24.43;;;4.40;89.30;;;;;;5040839;28;20649;-88
2021/11/25 05:17:10;;;;;;;35.10;24.77;;;4.40;89.40;;;;;;5058807;28;20257;-88
2021/11/25 05:19:35;;;;;;;32.87;23.57;;;4.40;89.50;;;;;;5040274;28;20200;-88
2021/11/25 05:22:01;;;;;;;41.30;24.67;;;4.40;89.40;;;;;;5039868;28;20184;-87
2021/11/25 05:24:27;;;;;;;36.97;24.40;;;4.40;89.20;;;;;;5040213;28;20226;-89
2021/11/25 05:26:53;;;;;;;42.67;25.03;;;4.50;89.00;;;;;;5040583;28;20176;-87
2021/11/25 05:29:21;;;;;;;36.10;24.27;;;4.60;88.50;;;;;;5057974;28;20204;-86
2021/11/25 05:31:47;;;;;;;36.03;24.17;;;4.60;88.10;;;;;;5039356;28;20221;-89
2021/11/25 05:34:13;;;;;;;35.77;22.80;;;4.70;87.70;;;;;;5039947;28;20174;-86
2021/11/25 05:36:38;;;;;;;35.83;22.87;;;4.80;87.40;;;;;;5039410;28;20231;-88
2021/11/25 05:39:04;;;;;;;36.53;23.30;;;4.80;87.50;;;;;;5057380;28;20587;-87
2021/11/25 05:41:30;;;;;;;40.33;23.43;;;4.80;87.40;;;;;;5039200;28;20176;-87
2021/11/25 05:43:55;;;;;;;30.70;22.43;;;4.80;87.20;;;;;;5039152;28;20549;-87
2021/11/25 05:46:21;;;;;;;32.33;22.30;;;4.80;87.00;;;;;;5039502;28;20177;-87
2021/11/25 05:48:46;;;;;;;28.93;20.97;;;4.80;86.50;;;;;;5056905;28;20663;-86
2021/11/25 05:51:12;;;;;;;34.20;21.53;;;4.90;85.80;;;;;;5057230;28;20561;-85
2021/11/25 05:53:37;;;;;;;35.83;23.03;;;4.90;85.90;;;;;;5039014;28;20205;-86
2021/11/25 05:56:03;;;;;;;33.50;23.67;;;4.90;85.50;;;;;;5056650;28;20178;-88
2021/11/25 05:58:29;;;;;;;34.97;23.13;;;4.90;85.10;;;;;;5056619;28;20273;-88
2021/11/25 06:00:54;;;;;;;36.23;22.87;;;5.00;84.80;;;;;;5038363;28;20199;-87
2021/11/25 06:03:22;;;;;;;32.00;22.93;;;5.00;84.80;;;;;;5038128;28;20228;-87
2021/11/25 06:05:48;;;;;;;31.93;22.77;;;5.00;84.60;;;;;;5056867;28;20646;-88
2021/11/25 06:08:13;;;;;;;40.30;23.67;;;5.00;84.80;;;;;;5038130;28;20231;-86
2021/11/25 06:10:39;;;;;;;36.23;23.53;;;5.00;84.80;;;;;;5056108;28;20276;-85
2021/11/25 06:13:04;;;;;;;37.30;23.60;;;5.00;84.60;;;;;;5038381;28;20195;-88
2021/11/25 06:15:30;;;;;;;36.20;24.10;;;5.10;84.20;;;;;;5038222;28;20184;-86
2021/11/25 06:17:56;;;;;;;33.83;23.43;;;5.10;84.00;;;;;;5038225;28;20241;-86
2021/11/25 06:20:22;;;;;;;33.20;23.23;;;5.10;84.30;;;;;;5038016;28;20258;-86
2021/11/25 06:22:51;;;;;;;41.43;26.40;;;5.00;84.60;;;;;;5038153;28;20204;-85
2021/11/25 06:25:20;;;;;;;40.97;23.33;;;5.00;84.50;;;;;;5055769;28;20165;-86
2021/11/25 06:27:46;;;;;;;44.60;22.80;;;5.10;84.30;;;;;;5056061;28;20169;-85
2021/11/25 06:30:13;;;;;;;35.80;24.60;;;5.10;84.20;;;;;;5037569;28;20194;-87
2021/11/25 06:32:41;;;;;;;40.10;27.63;;;5.10;84.10;;;;;;5055864;28;20183;-86
2021/11/25 06:35:10;;;;;;;36.47;21.23;;;5.10;84.00;;;;;;5036575;28;20177;-87
2021/11/25 06:37:47;;;;;;;35.23;21.80;;;5.10;84.40;;;;;;5037763;28;20285;-89
2021/11/25 06:40:16;;;;;;;40.80;23.20;;;5.00;84.40;;;;;;5055514;28;20193;-89
2021/11/25 06:42:42;;;;;;;40.97;24.17;;;5.00;85.20;;;;;;5055403;28;20640;-88
2021/11/25 06:45:08;;;;;;;38.90;26.17;;;4.90;85.80;;;;;;5055501;28;20668;-86
2021/11/25 06:47:36;;;;;;;42.80;26.20;;;5.00;85.40;;;;;;5037648;28;20554;-86
2021/11/25 06:50:02;;;;;;;39.17;25.93;;;5.00;85.40;;;;;;5036894;28;20610;-86
2021/11/25 06:52:27;;;;;;;36.20;23.23;;;5.00;85.20;;;;;;5055555;28;20179;-86
2021/11/25 06:54:53;;;;;;;42.10;25.67;;;5.00;85.30;;;;;;5056072;28;20252;-87
2021/11/25 06:57:18;;;;;;;39.53;25.70;;;5.00;85.00;;;;;;5037097;28;20294;-87
2021/11/25 06:59:44;;;;;;;36.73;22.07;;;5.00;85.10;;;;;;5036772;28;20235;-85
2021/11/25 07:02:09;;;;;;;42.00;26.90;;;5.00;84.50;;;;;;5036893;28;20179;-85
2021/11/25 07:04:35;;;;;;;38.80;26.30;;;5.00;84.90;;;;;;5055167;28;20182;-85
2021/11/25 07:07:03;;;;;;;42.60;26.17;;;5.00;85.30;;;;;;5037026;28;20173;-87
2021/11/25 07:09:28;;;;;;;40.33;20.63;;;5.00;85.30;;;;;;5054613;28;20208;-86
2021/11/25 07:11:54;;;;;;;43.33;29.23;;;5.00;85.00;;;;;;5037210;28;20192;-86
2021/11/25 07:14:20;;;;;;;46.57;30.53;;;5.00;85.10;;;;;;5036721;28;20181;-88
2021/11/25 07:16:46;;;;;;;41.87;25.63;;;5.00;85.40;;;;;;5036948;28;20550;-87
2021/11/25 07:19:11;;;;;;;46.57;28.83;;;5.00;85.40;;;;;;5036702;28;20193;-86
2021/11/25 07:21:37;;;;;;;45.07;28.47;;;5.10;84.90;;;;;;5036758;28;20223;-86
2021/11/25 07:24:03;;;;;;;46.33;28.67;;;5.10;84.90;;;;;;5036548;28;20182;-87
2021/11/25 07:26:28;;;;;;;32.43;21.77;;;5.20;84.70;;;;;;5037193;28;20181;-86
2021/11/25 07:28:56;;;;;;;47.40;30.07;;;5.20;84.40;;;;;;5036382;28;20549;-86
2021/11/25 07:31:27;;;;;;;43.07;26.20;;;5.20;84.30;;;;;;5036428;28;20180;-85
2021/11/25 07:33:53;;;;;;;46.63;28.43;;;5.20;84.80;;;;;;5036521;28;20174;-86
2021/11/25 07:36:19;;;;;;;45.07;29.00;;;5.20;84.90;;;;;;5054531;28;20174;-86
2021/11/25 07:38:44;;;;;;;47.13;29.00;;;5.20;84.90;;;;;;5036611;28;20206;-88
2021/11/25 07:41:10;;;;;;;46.20;29.50;;;5.20;85.10;;;;;;5036372;28;20273;-87
2021/11/25 07:43:36;;;;;;;44.33;28.60;;;5.20;85.10;;;;;;5036573;28;20169;-87
2021/11/25 07:46:02;;;;;;;49.37;28.60;;;5.20;85.20;;;;;;5055619;28;20177;-84
2021/11/25 07:48:28;;;;;;;45.90;28.87;;;5.20;85.20;;;;;;5040428;28;20184;-87
2021/11/25 07:50:54;;;;;;;45.70;30.60;;;5.30;85.00;;;;;;5058198;28;20185;-86
2021/11/25 07:53:19;;;;;;;49.27;32.13;;;5.30;85.40;;;;;;5039886;28;20174;-87
2021/11/25 07:55:45;;;;;;;53.70;28.67;;;5.20;85.50;;;;;;5040304;28;20216;-86
2021/11/25 07:58:11;;;;;;;50.87;30.27;;;5.20;85.60;;;;;;5040229;28;20199;-87
2021/11/25 08:00:36;;;;;;;38.13;26.03;;;5.30;85.50;;;;;;5040251;28;20670;-87
2021/11/25 08:03:02;;;;;;;50.70;31.37;;;5.30;85.30;;;;;;5057755;28;20184;-87
2021/11/25 08:05:28;;;;;;;43.97;26.23;;;5.30;85.40;;;;;;5058076;28;20180;-86
2021/11/25 08:07:55;;;;;;;47.87;32.47;;;5.30;85.40;;;;;;5058112;28;20572;-87
2021/11/25 08:10:23;;;;;;;53.83;33.17;;;5.30;85.60;;;;;;5057366;28;20210;-86
2021/11/25 08:12:49;;;;;;;57.77;36.30;;;5.20;86.20;;;;;;5058197;28;20183;-86
2021/11/25 08:15:15;;;;;;;44.50;30.33;;;5.20;86.40;;;;;;5040234;28;20193;-86
2021/11/25 08:17:41;;;;;;;45.60;29.80;;;5.20;86.50;;;;;;5057483;28;20202;-87
2021/11/25 08:20:08;;;;;;;49.03;31.97;;;5.20;86.70;;;;;;5057632;28;20188;-86
2021/11/25 08:22:34;;;;;;;53.03;33.90;;;5.30;86.10;;;;;;5057298;28;20260;-85
2021/11/25 08:25:01;;;;;;;47.40;29.40;;;5.30;86.50;;;;;;5038903;28;20213;-87
2021/11/25 08:27:27;;;;;;;53.03;31.50;;;5.30;86.60;;;;;;5056982;28;20228;-86
2021/11/25 08:29:53;;;;;;;47.20;27.77;;;5.30;86.90;;;;;;5038878;28;20212;-86
2021/11/25 08:32:19;;;;;;;55.00;34.77;;;5.30;87.00;;;;;;5057496;28;20190;-87
2021/11/25 08:34:45;;;;;;;51.63;32.10;;;5.40;86.90;;;;;;5039383;28;20180;-86
2021/11/25 08:37:11;;;;;;;58.53;33.20;;;5.50;86.20;;;;;;5039119;28;20231;-87
2021/11/25 08:39:37;;;;;;;55.10;36.07;;;5.60;86.30;;;;;;5056657;28;20686;-85
2021/11/25 08:42:07;;;;;;;55.03;36.20;;;5.70;86.30;;;;;;5056272;28;20522;-85
2021/11/25 08:44:34;;;;;;;48.40;32.20;;;5.70;86.40;;;;;;5038390;28;20173;-85
2021/11/25 08:47:00;;;;;;;57.27;35.90;;;5.70;85.80;;;;;;5056124;28;20546;-87
2021/11/25 08:49:26;;;;;;;53.93;34.87;;;5.70;85.60;;;;;;5038312;28;20213;-86
2021/11/25 08:51:52;;;;;;;51.90;32.63;;;5.70;85.60;;;;;;5038150;28;20186;-85
2021/11/25 08:54:18;;;;;;;57.23;35.10;;;5.60;85.90;;;;;;5038270;28;20182;-86
2021/11/25 08:56:44;;;;;;;51.53;34.00;;;5.50;86.20;;;;;;5055916;28;20184;-86
2021/11/25 08:59:10;;;;;;;54.60;33.50;;;5.50;86.00;;;;;;5037490;28;20202;-85
2021/11/25 09:01:35;;;;;;;44.80;28.27;;;5.60;86.20;;;;;;5055940;28;20198;-86
2021/11/25 09:04:01;;;;;;;53.47;32.70;;;5.50;86.40;;;;;;5038149;28;20181;-86
2021/11/25 09:06:27;;;;;;;57.47;36.13;;;5.60;86.40;;;;;;5055950;28;20188;-87
2021/11/25 09:08:53;;;;;;;47.97;29.93;;;5.60;86.60;;;;;;5037523;28;20265;-86
2021/11/25 09:11:19;;;;;;;49.10;26.83;;;5.60;86.70;;;;;;5056100;28;20253;-86
2021/11/25 09:13:45;;;;;;;54.07;29.97;;;5.60;86.70;;;;;;5055793;28;20180;-86
2021/11/25 09:16:11;;;;;;;58.93;34.67;;;5.60;86.70;;;;;;5037804;28;20631;-86
2021/11/25 09:18:37;;;;;;;57.37;30.47;;;5.70;86.70;;;;;;5055538;28;20193;-85
2021/11/25 09:21:03;;;;;;;41.17;25.53;;;5.70;86.40;;;;;;5055735;28;20195;-86
2021/11/25 09:23:29;;;;;;;51.70;32.83;;;5.70;86.70;;;;;;5037849;28;20182;-86
2021/11/25 09:25:55;;;;;;;44.23;24.67;;;5.70;87.20;;;;;;5037596;28;20676;-86
2021/11/25 09:28:23;;;;;;;37.53;21.13;;;5.70;87.00;;;;;;5055750;28;20175;-86
2021/11/25 09:30:49;;;;;;;55.60;32.60;;;5.70;87.30;;;;;;5055303;28;20200;-86
2021/11/25 09:33:16;;;;;;;60.93;36.53;;;5.80;87.50;;;;;;5037173;28;20187;-86
2021/11/25 09:35:42;;;;;;;62.27;33.90;;;5.80;87.80;;;;;;5037364;28;20572;-86
2021/11/25 09:38:09;;;;;;;57.57;34.10;;;5.90;87.60;;;;;;5055045;28;20198;-86
2021/11/25 09:40:36;;;;;;;59.07;36.37;;;5.90;87.50;;;;;;5037224;28;20230;-86
2021/11/25 09:43:08;;;;;;;60.10;39.30;;;5.90;87.30;;;;;;5055477;28;20210;-86
2021/11/25 09:45:37;;;;;;;59.33;36.20;;;5.90;87.30;;;;;;5037111;28;20543;-85
2021/11/25 09:48:08;;;;;;;54.63;33.37;;;5.90;87.20;;;;;;5054899;28;20261;-85
2021/11/25 09:50:36;;;;;;;61.90;37.03;;;5.90;87.80;;;;;;5036857;28;20207;-86
2021/11/25 09:53:05;;;;;;;59.13;33.63;;;5.80;87.40;;;;;;5037093;28;20183;-86
2021/11/25 09:55:31;;;;;;;45.33;27.37;;;5.80;87.80;;;;;;5037248;28;20576;-87
2021/11/25 09:57:58;;;;;;;54.83;33.67;;;5.80;87.70;;;;;;5037734;28;20195;-88
2021/11/25 10:00:27;;;;;;;58.40;33.03;;;5.80;87.60;;;;;;5037601;28;20203;-88
2021/11/25 10:02:53;;;;;;;58.27;35.17;;;5.90;87.80;;;;;;5055693;28;20182;-87
2021/11/25 10:05:18;;;;;;;58.43;35.50;;;5.90;87.80;;;;;;5055344;28;20179;-87
2021/11/25 10:07:45;;;;;;;60.83;37.47;;;5.90;87.80;;;;;;5036603;28;20219;-87
2021/11/25 10:10:27;;;;;;;61.03;38.03;;;5.80;88.10;;;;;;5036427;28;20217;-86
2021/11/25 10:12:59;;;;;;;60.57;35.03;;;5.90;88.20;;;;;;5036521;28;20179;-86
2021/11/25 10:15:35;;;;;;;53.70;30.10;;;5.90;88.30;;;;;;5036583;28;20175;-87
2021/11/25 10:18:09;;;;;;;65.37;38.67;;;5.90;88.60;;;;;;5054270;28;20263;-86
2021/11/25 10:20:37;;;;;;;65.00;37.80;;;5.90;88.50;;;;;;5036403;28;20678;-86
2021/11/25 10:23:03;;;;;;;63.67;35.07;;;5.90;89.00;;;;;;5036836;28;20202;-86
2021/11/25 10:25:56;;;;;;;64.27;36.80;;;5.90;88.70;;;;;;5054504;28;20198;-86
2021/11/25 10:28:36;;;;;;;59.27;36.03;;;5.90;88.90;;;;;;5036196;28;20175;-86
2021/11/25 10:31:11;;;;;;;63.53;37.47;;;5.90;89.50;;;;;;5036589;28;20189;-86
2021/11/25 10:33:47;;;;;;;64.13;38.57;;;5.80;90.00;;;;;;5036275;28;20172;-86
2021/11/25 10:38:57;;;;;;;71.10;39.43;;;5.80;90.90;;;;;;5054616;28;20670;-86
2021/11/25 10:41:26;;;;;;;71.93;41.77;;;5.90;90.90;;;;;;5036146;28;20208;-87
2021/11/25 10:44:16;;;;;;;66.90;40.10;;;5.90;90.90;;;;;;5053699;28;20229;-87
2021/11/25 10:46:52;;;;;;;71.47;40.73;;;5.90;91.20;;;;;;5036007;28;20175;-87
2021/11/25 10:49:32;;;;;;;64.20;36.67;;;5.90;91.20;;;;;;5035696;28;20268;-86
2021/11/25 10:52:00;;;;;;;66.73;36.67;;;5.90;91.40;;;;;;5053611;28;20167;-86
2021/11/25 10:54:27;;;;;;;65.80;35.50;;;5.80;91.90;;;;;;5035983;28;20179;-87
2021/11/25 10:56:57;;;;;;;72.50;42.27;;;5.80;92.20;;;;;;5054066;28;20269;-87
2021/11/25 10:59:36;;;;;;;65.40;36.07;;;5.80;92.50;;;;;;5053719;28;20195;-87
2021/11/25 11:02:02;;;;;;;70.30;39.20;;;5.80;92.70;;;;;;5035991;28;20171;-86
2021/11/25 11:04:29;;;;;;;70.67;39.20;;;5.90;92.90;;;;;;5055591;28;20186;-86
2021/11/25 11:06:55;;;;;;;72.93;40.03;;;5.80;93.00;;;;;;5054085;28;20175;-87
2021/11/25 11:09:36;;;;;;;63.57;33.17;;;5.80;93.00;;;;;;5053277;28;20218;-86
2021/11/25 11:12:48;;;;;;;79.17;39.57;;;5.80;93.20;;;;;;5035799;28;20209;-87
2021/11/25 11:20:36;;;;;;;67.50;39.10;;;5.90;93.30;;;;;;5053024;28;20277;-86
2021/11/25 11:23:06;;;;;;;67.47;37.07;;;5.80;93.30;;;;;;5035454;28;20275;-87
2021/11/25 11:25:34;;;;;;;74.13;39.87;;;5.90;93.40;;;;;;5035991;28;20192;-87
2021/11/25 11:28:01;;;;;;;75.47;38.50;;;5.90;93.50;;;;;;5035950;28;20194;-86
2021/11/25 11:30:28;;;;;;;74.47;39.50;;;5.90;93.50;;;;;;5054032;28;20659;-85
2021/11/25 11:32:55;;;;;;;75.33;40.40;;;5.90;93.60;;;;;;5053794;28;20265;-89
2021/11/25 11:35:23;;;;;;;76.10;40.27;;;5.80;93.60;;;;;;5054004;28;20201;-88
2021/11/25 11:37:54;;;;;;;75.87;40.77;;;5.90;93.80;;;;;;5053750;28;20206;-87
2021/11/25 11:40:25;;;;;;;71.93;35.83;;;5.90;93.80;;;;;;5036379;28;20213;-87
2021/11/25 11:42:53;;;;;;;76.47;42.17;;;6.00;93.90;;;;;;5035975;28;20245;-87
2021/11/25 11:45:21;;;;;;;78.30;42.07;;;6.00;94.00;;;;;;5036627;28;20536;-88
2021/11/25 11:47:51;;;;;;;70.97;39.63;;;6.00;93.90;;;;;;5036653;28;20276;-87
2021/11/25 11:50:17;;;;;;;73.27;39.97;;;6.00;94.00;;;;;;5019763;28;20214;-87
2021/11/25 11:53:06;;;;;;;72.60;39.03;;;6.00;94.00;;;;;;5036015;28;20183;-87
2021/11/25 11:55:36;;;;;;;78.87;41.23;;;6.00;93.90;;;;;;5036049;28;20179;-87
2021/11/25 11:58:30;;;;;;;66.47;35.50;;;6.00;93.90;;;;;;5054269;28;20555;-87
2021/11/25 12:01:17;;;;;;;75.77;38.63;;;6.00;93.80;;;;;;5054123;28;20717;-87
2021/11/25 12:03:47;;;;;;;70.83;37.90;;;6.00;93.90;;;;;;5035949;28;20215;-87
2021/11/25 12:06:30;;;;;;;74.97;37.27;;;6.10;93.90;;;;;;5035949;28;20178;-87
2021/11/25 12:08:56;;;;;;;69.77;37.93;;;6.10;94.00;;;;;;5035251;28;20285;-88
2021/11/25 12:11:22;;;;;;;63.20;34.40;;;6.10;94.10;;;;;;5035903;28;20643;-86
2021/11/25 12:14:04;;;;;;;68.27;38.07;;;6.10;94.10;;;;;;5035748;28;20277;-87
2021/11/25 12:16:36;;;;;;;67.77;36.60;;;6.10;94.10;;;;;;5035975;28;20551;-86
2021/11/25 12:19:07;;;;;;;77.67;41.23;;;6.10;94.00;;;;;;5054134;28;20217;-87
2021/11/25 12:21:34;;;;;;;69.93;37.70;;;6.20;94.00;;;;;;5054834;28;20217;-87
2021/11/25 12:24:16;;;;;;;70.97;39.47;;;6.10;94.00;;;;;;5036028;28;20257;-87
2021/11/25 12:27:07;;;;;;;67.07;34.67;;;6.20;94.10;;;;;;5036317;28;20232;-88
2021/11/25 12:30:15;;;;;;;69.60;37.93;;;6.30;94.00;;;;;;5054088;28;20229;-87
2021/11/25 12:32:45;;;;;;;81.23;35.77;;;6.30;94.00;;;;;;5042259;28;20198;-87
2021/11/25 12:35:25;;;;;;;70.27;37.53;;;6.30;93.90;;;;;;5038533;28;20664;-87
2021/11/25 12:38:00;;;;;;;68.57;35.03;;;6.30;94.00;;;;;;5056404;28;20233;-87
2021/11/25 12:40:26;;;;;;;70.13;33.87;;;6.30;94.00;;;;;;5038248;28;20202;-87
2021/11/25 12:43:09;;;;;;;73.07;35.43;;;6.40;94.00;;;;;;5056187;28;20184;-87
2021/11/25 12:45:45;;;;;;;69.53;35.30;;;6.40;94.00;;;;;;5056734;28;20170;-87
2021/11/25 12:48:11;;;;;;;77.87;37.50;;;6.50;94.00;;;;;;5037964;28;20179;-87
2021/11/25 12:50:38;;;;;;;65.17;35.00;;;6.40;93.90;;;;;;5037843;28;20199;-86
2021/11/25 12:53:10;;;;;;;60.07;30.23;;;6.50;94.00;;;;;;5055826;28;20328;-86